sensor_id;sensor_type;location;lat;lon;timestamp;temperature;humidity
15298;DHT22;7750;48.796;9.026;2023-12-22T02:50:47;10.50;76.00
15298;DHT22;7750;48.796;9.026;2023-12-22T02:55:50;10.50;75.60
15298;DHT22;7750;48.796;9.026;2023-12-22T03:00:59;10.50;75.60
15298;DHT22;7750;48.796;9.026;2023-12-22T03:16:13;10.60;74.80
15298;DHT22;7750;48.796;9.026;2023-12-22T03:31:42;10.60;73.40
15298;DHT22;7750;48.796;9.026;2023-12-22T03:41:52;10.60;73.00
15298;DHT22;7750;48.796;9.026;2023-12-22T03:47:05;10.70;73.10
15298;DHT22;7750;48.796;9.026;2023-12-22T03:52:39;10.70;73.50
15298;DHT22;7750;48.796;9.026;2023-12-22T04:08:15;10.60;76.00
15298;DHT22;7750;48.796;9.026;2023-12-22T04:23:40;10.30;78.40
15298;DHT22;7750;48.796;9.026;2023-12-22T04:54:47;10.20;77.10
15298;DHT22;7750;48.796;9.026;2023-12-22T05:00:22;10.30;77.10
15298;DHT22;7750;48.796;9.026;2023-12-22T05:10:56;10.30;76.40
15298;DHT22;7750;48.796;9.026;2023-12-22T05:21:07;10.30;77.20
15298;DHT22;7750;48.796;9.026;2023-12-22T05:48:10;10.40;75.80
15298;DHT22;7750;48.796;9.026;2023-12-22T05:53:13;10.40;74.80
15298;DHT22;7750;48.796;9.026;2023-12-22T05:58:13;10.40;74.70
15298;DHT22;7750;48.796;9.026;2023-12-22T06:03:14;10.40;74.70
15298;DHT22;7750;48.796;9.026;2023-12-22T06:08:15;10.50;74.60
15298;DHT22;7750;48.796;9.026;2023-12-22T06:13:26;10.50;75.10
15298;DHT22;7750;48.796;9.026;2023-12-22T06:18:28;10.60;74.20
15298;DHT22;7750;48.796;9.026;2023-12-22T06:23:29;10.60;74.30
15298;DHT22;7750;48.796;9.026;2023-12-22T06:33:49;10.70;73.80
15298;DHT22;7750;48.796;9.026;2023-12-22T06:49:15;10.70;73.40
15298;DHT22;7750;48.796;9.026;2023-12-22T06:54:17;10.70;73.40
15298;DHT22;7750;48.796;9.026;2023-12-22T06:59:38;10.70;73.60
15298;DHT22;7750;48.796;9.026;2023-12-22T08:01:44;10.70;77.20
15298;DHT22;7750;48.796;9.026;2023-12-22T08:06:48;10.70;78.10
15298;DHT22;7750;48.796;9.026;2023-12-22T08:38:14;10.30;80.90
15298;DHT22;7750;48.796;9.026;2023-12-22T08:53:37;10.30;81.20
15298;DHT22;7750;48.796;9.026;2023-12-22T08:58:38;10.40;80.10
15298;DHT22;7750;48.796;9.026;2023-12-22T09:03:40;10.40;79.80
15298;DHT22;7750;48.796;9.026;2023-12-22T09:08:47;10.40;80.00
15298;DHT22;7750;48.796;9.026;2023-12-22T09:13:49;10.40;78.60
15298;DHT22;7750;48.796;9.026;2023-12-22T09:18:50;10.50;78.60
15298;DHT22;7750;48.796;9.026;2023-12-22T09:23:52;10.40;77.50
15298;DHT22;7750;48.796;9.026;2023-12-22T09:28:55;10.50;76.90
15298;DHT22;7750;48.796;9.026;2023-12-22T09:33:56;10.60;76.50
15298;DHT22;7750;48.796;9.026;2023-12-22T09:38:57;10.70;76.10
15298;DHT22;7750;48.796;9.026;2023-12-22T09:43:59;10.70;75.80
15298;DHT22;7750;48.796;9.026;2023-12-22T09:49:01;10.70;75.20
15298;DHT22;7750;48.796;9.026;2023-12-22T09:54:02;10.80;75.50
15298;DHT22;7750;48.796;9.026;2023-12-22T09:59:05;10.80;75.70
15298;DHT22;7750;48.796;9.026;2023-12-22T10:04:06;10.90;75.60
15298;DHT22;7750;48.796;9.026;2023-12-22T10:09:07;10.90;75.10
15298;DHT22;7750;48.796;9.026;2023-12-22T10:14:10;10.90;75.10
15298;DHT22;7750;48.796;9.026;2023-12-22T10:19:11;10.90;74.70
15298;DHT22;7750;48.796;9.026;2023-12-22T10:24:43;11.00;74.50
15298;DHT22;7750;48.796;9.026;2023-12-22T10:29:44;11.00;72.90
15298;DHT22;7750;48.796;9.026;2023-12-22T10:34:45;11.10;74.20
15298;DHT22;7750;48.796;9.026;2023-12-22T10:39:45;11.00;74.90
15298;DHT22;7750;48.796;9.026;2023-12-22T10:44:49;11.10;75.70
15298;DHT22;7750;48.796;9.026;2023-12-22T10:49:50;11.10;76.10
15298;DHT22;7750;48.796;9.026;2023-12-22T10:54:51;11.10;76.70
15298;DHT22;7750;48.796;9.026;2023-12-22T10:59:52;11.10;77.30
15298;DHT22;7750;48.796;9.026;2023-12-22T11:05:04;11.10;77.50
15298;DHT22;7750;48.796;9.026;2023-12-22T11:10:10;11.10;78.50
15298;DHT22;7750;48.796;9.026;2023-12-22T11:15:12;11.00;78.80
15298;DHT22;7750;48.796;9.026;2023-12-22T11:20:13;11.00;79.40
15298;DHT22;7750;48.796;9.026;2023-12-22T11:25:14;11.00;79.50
15298;DHT22;7750;48.796;9.026;2023-12-22T11:30:16;11.00;79.90
15298;DHT22;7750;48.796;9.026;2023-12-22T11:35:18;11.00;80.80
15298;DHT22;7750;48.796;9.026;2023-12-22T11:40:19;10.90;80.60
15298;DHT22;7750;48.796;9.026;2023-12-22T11:45:19;10.90;80.80
15298;DHT22;7750;48.796;9.026;2023-12-22T11:50:30;10.80;81.00
15298;DHT22;7750;48.796;9.026;2023-12-22T11:55:56;10.80;81.70
15298;DHT22;7750;48.796;9.026;2023-12-22T12:01:01;10.80;82.30
15298;DHT22;7750;48.796;9.026;2023-12-22T12:11:12;10.70;82.40
15298;DHT22;7750;48.796;9.026;2023-12-22T12:16:15;10.70;82.60
15298;DHT22;7750;48.796;9.026;2023-12-22T12:21:16;10.60;82.10
15298;DHT22;7750;48.796;9.026;2023-12-22T12:26:17;10.60;82.40
15298;DHT22;7750;48.796;9.026;2023-12-22T12:31:17;10.60;82.50
15298;DHT22;7750;48.796;9.026;2023-12-22T12:36:19;10.60;82.70
15298;DHT22;7750;48.796;9.026;2023-12-22T12:41:31;10.60;83.00
15298;DHT22;7750;48.796;9.026;2023-12-22T12:46:36;10.60;83.40
15298;DHT22;7750;48.796;9.026;2023-12-22T12:51:38;10.70;83.70
15298;DHT22;7750;48.796;9.026;2023-12-22T12:56:44;10.70;83.80
15298;DHT22;7750;48.796;9.026;2023-12-22T13:01:46;10.80;84.30
15298;DHT22;7750;48.796;9.026;2023-12-22T13:06:50;10.80;84.70
15298;DHT22;7750;48.796;9.026;2023-12-22T13:11:51;10.90;85.20
15298;DHT22;7750;48.796;9.026;2023-12-22T13:16:55;11.00;85.50
15298;DHT22;7750;48.796;9.026;2023-12-22T13:21:56;11.10;85.50
15298;DHT22;7750;48.796;9.026;2023-12-22T13:27:04;11.20;85.60
15298;DHT22;7750;48.796;9.026;2023-12-22T13:32:07;11.30;85.40
15298;DHT22;7750;48.796;9.026;2023-12-22T13:37:07;11.30;85.30
15298;DHT22;7750;48.796;9.026;2023-12-22T13:42:20;11.40;85.20
15298;DHT22;7750;48.796;9.026;2023-12-22T13:47:21;11.50;85.20
15298;DHT22;7750;48.796;9.026;2023-12-22T13:52:33;11.60;84.70
15298;DHT22;7750;48.796;9.026;2023-12-22T13:57:35;11.60;84.20
15298;DHT22;7750;48.796;9.026;2023-12-22T14:02:35;11.70;84.10
15298;DHT22;7750;48.796;9.026;2023-12-22T14:07:37;11.80;83.60
15298;DHT22;7750;48.796;9.026;2023-12-22T14:12:40;11.80;84.10
15298;DHT22;7750;48.796;9.026;2023-12-22T14:17:41;11.90;83.20
15298;DHT22;7750;48.796;9.026;2023-12-22T14:22:45;11.90;83.10
15298;DHT22;7750;48.796;9.026;2023-12-22T14:27:45;12.00;82.90
15298;DHT22;7750;48.796;9.026;2023-12-22T14:32:46;12.00;82.90
15298;DHT22;7750;48.796;9.026;2023-12-22T14:37:46;12.00;82.80
15298;DHT22;7750;48.796;9.026;2023-12-22T14:42:51;12.10;82.50
15298;DHT22;7750;48.796;9.026;2023-12-22T14:47:51;12.10;82.50
15298;DHT22;7750;48.796;9.026;2023-12-22T14:52:53;12.10;82.40
15298;DHT22;7750;48.796;9.026;2023-12-22T14:57:56;12.10;81.70
15298;DHT22;7750;48.796;9.026;2023-12-22T15:02:56;12.20;81.50
15298;DHT22;7750;48.796;9.026;2023-12-22T15:07:57;12.20;81.50
15298;DHT22;7750;48.796;9.026;2023-12-22T15:12:58;12.20;81.60
15298;DHT22;7750;48.796;9.026;2023-12-22T15:17:59;12.20;82.20
15298;DHT22;7750;48.796;9.026;2023-12-22T15:22:59;12.20;81.50
15298;DHT22;7750;48.796;9.026;2023-12-22T15:28:01;12.20;81.70
15298;DHT22;7750;48.796;9.026;2023-12-22T15:33:01;12.30;81.20
15298;DHT22;7750;48.796;9.026;2023-12-22T15:38:02;12.30;80.70
15298;DHT22;7750;48.796;9.026;2023-12-22T15:43:03;12.20;80.30
15298;DHT22;7750;48.796;9.026;2023-12-22T15:48:04;12.90;78.00
15298;DHT22;7750;48.796;9.026;2023-12-22T15:53:05;12.60;78.40
15298;DHT22;7750;48.796;9.026;2023-12-22T15:58:05;12.50;78.60
15298;DHT22;7750;48.796;9.026;2023-12-22T16:03:06;12.50;78.50
15298;DHT22;7750;48.796;9.026;2023-12-22T16:08:08;12.40;78.70
15298;DHT22;7750;48.796;9.026;2023-12-22T16:13:10;12.40;78.50
15298;DHT22;7750;48.796;9.026;2023-12-22T16:18:13;12.40;78.50
15298;DHT22;7750;48.796;9.026;2023-12-22T16:23:13;12.40;79.00
15298;DHT22;7750;48.796;9.026;2023-12-22T16:28:14;12.40;79.40
15298;DHT22;7750;48.796;9.026;2023-12-22T16:33:18;12.40;79.50
15298;DHT22;7750;48.796;9.026;2023-12-22T16:38:19;12.40;79.30
15298;DHT22;7750;48.796;9.026;2023-12-22T16:43:19;12.40;79.20
15298;DHT22;7750;48.796;9.026;2023-12-22T16:48:20;12.40;79.40
15298;DHT22;7750;48.796;9.026;2023-12-22T16:53:21;12.40;79.40
15298;DHT22;7750;48.796;9.026;2023-12-22T16:58:22;12.40;79.20
15298;DHT22;7750;48.796;9.026;2023-12-22T17:03:23;12.40;79.10
15298;DHT22;7750;48.796;9.026;2023-12-22T17:08:24;12.40;79.40
15298;DHT22;7750;48.796;9.026;2023-12-22T17:13:24;12.40;79.00
15298;DHT22;7750;48.796;9.026;2023-12-22T17:18:25;12.40;79.30
15298;DHT22;7750;48.796;9.026;2023-12-22T17:23:26;12.40;79.10
15298;DHT22;7750;48.796;9.026;2023-12-22T17:28:28;12.40;79.30
15298;DHT22;7750;48.796;9.026;2023-12-22T17:33:28;12.40;79.30
15298;DHT22;7750;48.796;9.026;2023-12-22T17:38:29;12.40;79.20
15298;DHT22;7750;48.796;9.026;2023-12-22T17:43:30;12.40;79.20
15298;DHT22;7750;48.796;9.026;2023-12-22T17:48:30;12.40;78.60
15298;DHT22;7750;48.796;9.026;2023-12-22T17:53:31;12.40;78.90
15298;DHT22;7750;48.796;9.026;2023-12-22T17:58:31;12.40;79.00
15298;DHT22;7750;48.796;9.026;2023-12-22T18:03:32;12.40;79.30
15298;DHT22;7750;48.796;9.026;2023-12-22T18:08:33;12.40;79.20
15298;DHT22;7750;48.796;9.026;2023-12-22T18:13:34;12.40;78.80
15298;DHT22;7750;48.796;9.026;2023-12-22T18:18:36;12.40;78.80
15298;DHT22;7750;48.796;9.026;2023-12-22T18:23:36;12.40;78.80
15298;DHT22;7750;48.796;9.026;2023-12-22T18:28:37;12.30;78.80
15298;DHT22;7750;48.796;9.026;2023-12-22T18:33:37;12.30;78.80
15298;DHT22;7750;48.796;9.026;2023-12-22T18:38:38;12.30;78.80
15298;DHT22;7750;48.796;9.026;2023-12-22T18:43:39;12.30;78.70
15298;DHT22;7750;48.796;9.026;2023-12-22T18:48:43;12.30;78.80
15298;DHT22;7750;48.796;9.026;2023-12-22T18:53:46;12.30;78.60
15298;DHT22;7750;48.796;9.026;2023-12-22T18:58:47;12.30;78.60
15298;DHT22;7750;48.796;9.026;2023-12-22T19:03:48;12.20;78.40
15298;DHT22;7750;48.796;9.026;2023-12-22T19:08:49;12.30;78.50
15298;DHT22;7750;48.796;9.026;2023-12-22T19:13:50;12.20;78.60
15298;DHT22;7750;48.796;9.026;2023-12-22T19:18:51;12.20;78.70
15298;DHT22;7750;48.796;9.026;2023-12-22T19:23:51;12.20;78.60
15298;DHT22;7750;48.796;9.026;2023-12-22T19:28:52;12.20;78.60
15298;DHT22;7750;48.796;9.026;2023-12-22T19:33:59;12.20;78.70
15298;DHT22;7750;48.796;9.026;2023-12-22T19:38:59;12.20;78.60
15298;DHT22;7750;48.796;9.026;2023-12-22T19:44:01;12.20;78.60
15298;DHT22;7750;48.796;9.026;2023-12-22T19:49:02;12.10;78.50
15298;DHT22;7750;48.796;9.026;2023-12-22T19:54:02;12.10;78.30
15298;DHT22;7750;48.796;9.026;2023-12-22T19:59:03;12.10;78.40
15298;DHT22;7750;48.796;9.026;2023-12-22T20:04:04;12.10;79.20
15298;DHT22;7750;48.796;9.026;2023-12-22T20:09:06;12.10;78.80
15298;DHT22;7750;48.796;9.026;2023-12-22T20:14:10;12.00;78.90
15298;DHT22;7750;48.796;9.026;2023-12-22T20:19:10;12.00;79.30
15298;DHT22;7750;48.796;9.026;2023-12-22T20:24:11;12.00;79.40
15298;DHT22;7750;48.796;9.026;2023-12-22T20:29:12;12.00;79.40
15298;DHT22;7750;48.796;9.026;2023-12-22T20:34:13;12.00;79.60
15298;DHT22;7750;48.796;9.026;2023-12-22T20:39:13;12.00;79.70
15298;DHT22;7750;48.796;9.026;2023-12-22T20:44:14;11.90;80.00
15298;DHT22;7750;48.796;9.026;2023-12-22T20:49:15;11.90;80.00
15298;DHT22;7750;48.796;9.026;2023-12-22T20:54:16;11.90;79.50
15298;DHT22;7750;48.796;9.026;2023-12-22T20:59:18;11.90;79.40
15298;DHT22;7750;48.796;9.026;2023-12-22T21:04:18;11.90;79.80
15298;DHT22;7750;48.796;9.026;2023-12-22T21:09:19;11.80;79.70
15298;DHT22;7750;48.796;9.026;2023-12-22T21:14:20;11.80;79.60
15298;DHT22;7750;48.796;9.026;2023-12-22T21:19:20;11.80;79.30
15298;DHT22;7750;48.796;9.026;2023-12-22T21:24:21;11.80;79.50
15298;DHT22;7750;48.796;9.026;2023-12-22T21:29:21;11.80;79.50
15298;DHT22;7750;48.796;9.026;2023-12-22T21:34:22;11.80;79.30
15298;DHT22;7750;48.796;9.026;2023-12-22T21:39:23;11.80;79.20
15298;DHT22;7750;48.796;9.026;2023-12-22T21:44:24;11.80;79.00
15298;DHT22;7750;48.796;9.026;2023-12-22T21:49:24;11.80;78.90
15298;DHT22;7750;48.796;9.026;2023-12-22T21:54:25;11.80;78.80
15298;DHT22;7750;48.796;9.026;2023-12-22T21:59:27;11.80;78.90
15298;DHT22;7750;48.796;9.026;2023-12-22T22:04:28;11.80;79.30
15298;DHT22;7750;48.796;9.026;2023-12-22T22:09:29;11.80;79.40
15298;DHT22;7750;48.796;9.026;2023-12-22T22:14:30;11.70;79.80
15298;DHT22;7750;48.796;9.026;2023-12-22T22:19:31;11.70;79.30
15298;DHT22;7750;48.796;9.026;2023-12-22T22:24:32;11.70;79.60
15298;DHT22;7750;48.796;9.026;2023-12-22T22:29:32;11.70;78.50
15298;DHT22;7750;48.796;9.026;2023-12-22T22:34:33;11.60;78.40
15298;DHT22;7750;48.796;9.026;2023-12-22T22:39:34;11.70;78.40
15298;DHT22;7750;48.796;9.026;2023-12-22T22:44:41;11.70;78.20
15298;DHT22;7750;48.796;9.026;2023-12-22T22:49:44;11.70;77.80
15298;DHT22;7750;48.796;9.026;2023-12-22T22:54:44;11.70;77.80
15298;DHT22;7750;48.796;9.026;2023-12-22T22:59:46;11.70;77.80
15298;DHT22;7750;48.796;9.026;2023-12-22T23:04:47;11.70;77.60
15298;DHT22;7750;48.796;9.026;2023-12-22T23:09:47;11.60;77.60
15298;DHT22;7750;48.796;9.026;2023-12-22T23:14:49;11.60;77.80
15298;DHT22;7750;48.796;9.026;2023-12-22T23:19:51;11.60;78.00
15298;DHT22;7750;48.796;9.026;2023-12-22T23:24:52;11.60;78.20
15298;DHT22;7750;48.796;9.026;2023-12-22T23:29:53;11.60;78.10
15298;DHT22;7750;48.796;9.026;2023-12-22T23:34:54;11.60;78.00
15298;DHT22;7750;48.796;9.026;2023-12-22T23:39:56;11.60;78.20
15298;DHT22;7750;48.796;9.026;2023-12-22T23:44:57;11.60;78.10
15298;DHT22;7750;48.796;9.026;2023-12-22T23:50:01;11.60;78.80
15298;DHT22;7750;48.796;9.026;2023-12-22T23:55:04;11.60;78.20
